Chili, WI

1:40 AM CST on March 03, 2015 (GMT -0600)
Marshfield Municipal | Change Station
CLOSE
Current Station
Airport
Location: Marshfield,
Elevation: 1276 ft
Nearby Weather Stations
Active Advisory: Winter Weather Advisory

Elev 1276 ft 44.64 °N, 90.19 °W | Updated 39 minutes ago

Overcast
Overcast
21 °F
Feels Like 11 °F
N
8
Wind Variable Wind from South

Today
High -- | Low -- °F
--% Chance of Precip.
Yesterday
High -- | Low -- °F
Precip. -- in
6:35 AM 5:51 PM
Waxing Gibbous, 95% visible
Pressure 30.07 in
Visibility 9.0 miles
Clouds Mostly Cloudy 4500 ft
Overcast 7000 ft
Windchill 11 °F
Dew Point 17 °F
Humidity 85%
Rainfall 0.00 in
Snow Depth Not available.
UV 0 out of 12
Pollen .40 out of 12
Air Quality Not available.
Flu Activity Not available.
SPECI KMFI 030701Z AUTO 19007KT 9SM BKN045 OVC070 M06/M08 A3007 RMK AO2 T10611083

More Conditions Fewer Conditions

Pressure 30.07 in
Visibility 9.0 miles
Clouds Mostly Cloudy 4500 ft
Overcast 7000 ft
Windchill 11 °F
Dew Point 17 °F
Humidity 85%
Rainfall 0.00 in
Snow Depth Not available.
UV 0 out of 12
Pollen .40 out of 12
Air Quality Not available.
Flu Activity Not available.
SPECI KMFI 030701Z AUTO 19007KT 9SM BKN045 OVC070 M06/M08 A3007 RMK AO2 T10611083

More Conditions Fewer Conditions

10-Day Weather Forecast

Almanac

Astronomy

Mar. 03, 2015 Rise Set
Actual Time
Civil Twilight
Nautical Twilight
Astronomical Twilight
Moon
Length of Visible Light
Length of Day
Tomorrow will be .
, % of the Moon is Illuminated

Today's Extremes

State Highs State Lows

Community

WunderPhotos

Upload Photos

1,802,073 photos uploaded!

WunderBlogs® & News

Nearby

Air Quality

  Air Quality AQ Index Pollutant
Not available.

Snow Depth

Station Depth Elevation

Earthquake Activity

City Distance Mag. Time & Date
Minimum magnitude displayed is 2.5.

Coastal Water Temperatures

Place Temperature

Nearby Weather Stations

Winter Weather Advisory
Statement as of 11:31 PM CST on March 02, 2015

... Winter Weather Advisory remains in effect from 3 am to 9 PM
CST Tuesday...

* expect snow to develop after 3 am Tuesday and then diminish
early Tuesday afternoon.

* The heaviest snowfall rates will occur between 6 am and noon
Tuesday.

* Winds gusting as high as 45 mph will cause areas of blowing
and drifting snow... especially on ridge tops and in open
areas.

* Total snow and sleet accumulations of 1 to 4 inches are
expected.

* Plan on slippery Road conditions... including during the
morning commute on Tuesday. In addition... areas of poor
visibility are expected.

Precautionary/preparedness actions...

A Winter Weather Advisory means periods of snow will cause
primarily travel difficulties. Be prepared for snow covered roads
and limited visibilities... and use caution while driving..

Shea